Time;durP1;ratioP1;P1;durP2;ratioP2;P2;SDS_P1;SDS_P2;PMS_P1;PMS_P2;Temp;Humidity;BMP_temperature;BMP_pressure;BME280_temperature;BME280_humidity;BME280_pressure;Samples;Min_cycle;Max_cycle;Signal;HPM_P1;HPM_P2
2022/09/27 00:00:13;;;;;;;0.6;0.6;;;;;;;;;;;;;
2022/09/27 00:02:39;;;;;;;0.7;0.7;;;;;;;;;;;;;
2022/09/27 00:05:04;;;;;;;0.7;0.7;;;;;;;;;;;;;
2022/09/27 00:07:29;;;;;;;0.7;0.7;;;;;;;;;;;;;
2022/09/27 00:09:54;;;;;;;0.8;0.8;;;;;;;;;;;;;
2022/09/27 00:12:20;;;;;;;1.1;1;;;;;;;;;;;;;
2022/09/27 00:14:45;;;;;;;1.1;0.9;;;;;;;;;;;;;
2022/09/27 00:17:12;;;;;;;1.8;1.2;;;;;;;;;;;;;
2022/09/27 00:19:38;;;;;;;1.4;1.3;;;;;;;;;;;;;
2022/09/27 00:22:04;;;;;;;1.3;1.2;;;;;;;;;;;;;
2022/09/27 00:24:30;;;;;;;1.7;1.1;;;;;;;;;;;;;
2022/09/27 00:26:56;;;;;;;1.4;1.3;;;;;;;;;;;;;
2022/09/27 00:29:21;;;;;;;2.1;1.5;;;;;;;;;;;;;
2022/09/27 00:31:48;;;;;;;1.6;1.2;;;;;;;;;;;;;
2022/09/27 00:34:13;;;;;;;2.2;1.2;;;;;;;;;;;;;
2022/09/27 00:36:38;;;;;;;2.2;0.9;;;;;;;;;;;;;
2022/09/27 00:39:05;;;;;;;2.3;1.1;;;;;;;;;;;;;
2022/09/27 00:41:31;;;;;;;2.3;1.3;;;;;;;;;;;;;
2022/09/27 00:43:59;;;;;;;1.5;1.3;;;;;;;;;;;;;
2022/09/27 00:46:24;;;;;;;1.2;1.1;;;;;;;;;;;;;
2022/09/27 00:48:49;;;;;;;1.6;1.2;;;;;;;;;;;;;
2022/09/27 00:51:15;;;;;;;1.3;1.2;;;;;;;;;;;;;
2022/09/27 00:53:41;;;;;;;1.8;1.3;;;;;;;;;;;;;
2022/09/27 00:56:06;;;;;;;1.5;1.3;;;;;;;;;;;;;
2022/09/27 00:58:31;;;;;;;1.2;1.1;;;;;;;;;;;;;
2022/09/27 01:00:57;;;;;;;1.4;1;;;;;;;;;;;;;
2022/09/27 01:03:22;;;;;;;1.5;1.1;;;;;;;;;;;;;
2022/09/27 01:05:49;;;;;;;1.4;1.2;;;;;;;;;;;;;
2022/09/27 01:08:14;;;;;;;1.2;1.1;;;;;;;;;;;;;
2022/09/27 01:10:39;;;;;;;1.4;1;;;;;;;;;;;;;
2022/09/27 01:13:06;;;;;;;1.7;1.2;;;;;;;;;;;;;
2022/09/27 01:15:31;;;;;;;1.7;1.3;;;;;;;;;;;;;
2022/09/27 01:17:57;;;;;;;1.4;1.3;;;;;;;;;;;;;
2022/09/27 01:20:22;;;;;;;1.2;1.1;;;;;;;;;;;;;
2022/09/27 01:22:47;;;;;;;1.4;1.3;;;;;;;;;;;;;
2022/09/27 01:25:12;;;;;;;1.4;1.3;;;;;;;;;;;;;
2022/09/27 01:27:37;;;;;;;1.6;1.2;;;;;;;;;;;;;
2022/09/27 01:30:03;;;;;;;1.1;1;;;;;;;;;;;;;
2022/09/27 01:32:30;;;;;;;1.4;1.3;;;;;;;;;;;;;
2022/09/27 01:34:55;;;;;;;2.6;1.2;;;;;;;;;;;;;
2022/09/27 01:37:20;;;;;;;0.9;0.9;;;;;;;;;;;;;
2022/09/27 01:39:45;;;;;;;1.7;1.1;;;;;;;;;;;;;
2022/09/27 01:42:10;;;;;;;1.2;1.1;;;;;;;;;;;;;
2022/09/27 01:44:36;;;;;;;1.3;1.1;;;;;;;;;;;;;
2022/09/27 01:47:01;;;;;;;0.8;0.8;;;;;;;;;;;;;
2022/09/27 01:49:26;;;;;;;0.9;0.9;;;;;;;;;;;;;
2022/09/27 01:51:51;;;;;;;0.8;0.8;;;;;;;;;;;;;
2022/09/27 01:54:16;;;;;;;1.1;0.8;;;;;;;;;;;;;
2022/09/27 01:56:42;;;;;;;1.3;1;;;;;;;;;;;;;
2022/09/27 01:59:07;;;;;;;2.4;0.9;;;;;;;;;;;;;
2022/09/27 02:01:36;;;;;;;1.1;1;;;;;;;;;;;;;
2022/09/27 02:04:01;;;;;;;1.8;1.2;;;;;;;;;;;;;
2022/09/27 02:06:26;;;;;;;1.4;1.3;;;;;;;;;;;;;
2022/09/27 02:08:51;;;;;;;1.1;1;;;;;;;;;;;;;
2022/09/27 02:11:17;;;;;;;1.1;1;;;;;;;;;;;;;
2022/09/27 02:13:42;;;;;;;1.8;1.2;;;;;;;;;;;;;
2022/09/27 02:16:10;;;;;;;2.1;1.1;;;;;;;;;;;;;
2022/09/27 02:18:35;;;;;;;0.9;0.9;;;;;;;;;;;;;
2022/09/27 02:21:00;;;;;;;1.6;1.5;;;;;;;;;;;;;
2022/09/27 02:23:26;;;;;;;1.2;1.1;;;;;;;;;;;;;
2022/09/27 02:25:52;;;;;;;0.9;0.9;;;;;;;;;;;;;
2022/09/27 02:28:16;;;;;;;1.7;1.1;;;;;;;;;;;;;
2022/09/27 02:30:41;;;;;;;1.3;1.2;;;;;;;;;;;;;
2022/09/27 02:33:06;;;;;;;2.4;1.1;;;;;;;;;;;;;
2022/09/27 02:35:31;;;;;;;1.2;1.1;;;;;;;;;;;;;
2022/09/27 02:37:56;;;;;;;2.1;1.3;;;;;;;;;;;;;
2022/09/27 02:40:21;;;;;;;1.4;1.2;;;;;;;;;;;;;
2022/09/27 02:42:49;;;;;;;1.6;1.2;;;;;;;;;;;;;
2022/09/27 02:45:14;;;;;;;1.2;1.1;;;;;;;;;;;;;
2022/09/27 02:48:10;;;;;;;1.6;1;;;;;;;;;;;;;
2022/09/27 02:50:36;;;;;;;1.3;1.2;;;;;;;;;;;;;
2022/09/27 02:53:01;;;;;;;1.7;1.1;;;;;;;;;;;;;
2022/09/27 02:55:26;;;;;;;1.4;1.3;;;;;;;;;;;;;
2022/09/27 02:57:53;;;;;;;1.2;1.1;;;;;;;;;;;;;
2022/09/27 03:00:17;;;;;;;1.6;1.4;;;;;;;;;;;;;
2022/09/27 03:02:42;;;;;;;1.2;1.1;;;;;;;;;;;;;
2022/09/27 03:05:12;;;;;;;1.3;1.2;;;;;;;;;;;;;
2022/09/27 03:07:38;;;;;;;1.4;1.3;;;;;;;;;;;;;
2022/09/27 03:10:04;;;;;;;1.2;1.1;;;;;;;;;;;;;
2022/09/27 03:12:29;;;;;;;1.2;1;;;;;;;;;;;;;
2022/09/27 03:14:56;;;;;;;1.5;1.2;;;;;;;;;;;;;
2022/09/27 03:17:21;;;;;;;1.8;1.1;;;;;;;;;;;;;
2022/09/27 03:19:47;;;;;;;0.9;0.9;;;;;;;;;;;;;
2022/09/27 03:22:12;;;;;;;1.1;1;;;;;;;;;;;;;
2022/09/27 03:24:38;;;;;;;1.2;1.1;;;;;;;;;;;;;
2022/09/27 03:27:03;;;;;;;1.3;0.8;;;;;;;;;;;;;
2022/09/27 03:29:30;;;;;;;1;1;;;;;;;;;;;;;
2022/09/27 03:31:55;;;;;;;0.8;0.8;;;;;;;;;;;;;
2022/09/27 03:34:23;;;;;;;0.8;0.8;;;;;;;;;;;;;
2022/09/27 03:36:48;;;;;;;1.2;1;;;;;;;;;;;;;
2022/09/27 03:39:14;;;;;;;0.8;0.8;;;;;;;;;;;;;
2022/09/27 03:41:40;;;;;;;0.9;0.9;;;;;;;;;;;;;
2022/09/27 03:44:04;;;;;;;1.8;1.4;;;;;;;;;;;;;
2022/09/27 03:46:29;;;;;;;3.3;2.6;;;;;;;;;;;;;
2022/09/27 03:48:56;;;;;;;1.6;1.2;;;;;;;;;;;;;
2022/09/27 03:51:21;;;;;;;1.1;1;;;;;;;;;;;;;
2022/09/27 03:53:48;;;;;;;1;0.8;;;;;;;;;;;;;
2022/09/27 03:56:12;;;;;;;2.4;0.9;;;;;;;;;;;;;
2022/09/27 03:58:39;;;;;;;1.3;1.2;;;;;;;;;;;;;
2022/09/27 04:02:34;;;;;;;1.3;1.2;;;;;;;9.76;96.67188;921.5687;;;;
2022/09/27 04:05:04;;;;;;;1.5;1.4;;;;;;;9.69;96.87207;921.5213;;;;
2022/09/27 04:07:30;;;;;;;1.5;1.4;;;;;;;9.51;97.94629;921.4648;;;;
2022/09/27 04:09:54;;;;;;;1.7;1.4;;;;;;;9.39;98.83008;921.4821;;;;
2022/09/27 04:12:20;;;;;;;2.9;1.4;;;;;;;9.53;98.80859;921.3;;;;
2022/09/27 04:14:45;;;;;;;1.6;1.5;;;;;;;9.42;98.82715;921.3976;;;;
2022/09/27 04:17:14;;;;;;;2.6;1.6;;;;;;;9.52;99.05273;921.3328;;;;
2022/09/27 04:19:39;;;;;;;1.4;1.3;;;;;;;9.47;98.67773;921.3057;;;;
2022/09/27 04:22:05;;;;;;;1.6;1.5;;;;;;;9.58;97.64551;921.2039;;;;
2022/09/27 04:24:31;;;;;;;1.6;1.5;;;;;;;9.59;97.7041;921.2642;;;;
2022/09/27 04:26:55;;;;;;;3.5;2.6;;;;;;;9.69;97.5791;921.3306;;;;
2022/09/27 04:29:24;;;;;;;2.1;1.6;;;;;;;9.76;97.18262;921.3836;;;;
2022/09/27 04:31:49;;;;;;;1.5;1.3;;;;;;;9.58;97.20117;921.455;;;;
2022/09/27 04:36:25;;;;;;;1.3;1.2;;;;;;;9.49;98.1582;921.2729;;;;
2022/09/27 04:36:51;;;;;;;2.5;2;;;;;;;9.47;98.88086;921.4439;;;;
2022/09/27 04:39:20;;;;;;;3;2.2;;;;;;;9.43;99.11426;921.3842;;;;
2022/09/27 04:41:45;;;;;;;3.8;2.6;;;;;;;9.43;98.9541;921.3523;;;;
2022/09/27 04:44:17;;;;;;;3.5;2.6;;;;;;;9.41;99.44043;921.3136;;;;
2022/09/27 04:46:46;;;;;;;2.8;2;;;;;;;9.62;98.46094;921.462;;;;
2022/09/27 04:49:11;;;;;;;13.8;9.7;;;;;;;9.67;97.99609;921.5661;;;;
2022/09/27 04:51:36;;;;;;;3.6;3.1;;;;;;;9.66;97.43359;921.6044;;;;
2022/09/27 04:59:59;;;;;;;2.5;1.2;;;;;;;9.83;96.2168;921.7914;;;;
2022/09/27 05:02:24;;;;;;;1.5;1.2;;;;;;;9.5;96.98926;921.8828;;;;
2022/09/27 05:04:49;;;;;;;2.1;1.4;;;;;;;9.66;97.78711;921.8555;;;;
2022/09/27 05:07:20;;;;;;;1.2;1.1;;;;;;;9.76;97.10254;921.878;;;;
2022/09/27 05:09:51;;;;;;;1.1;1;;;;;;;9.84;96.73535;921.7388;;;;
2022/09/27 05:12:18;;;;;;;1.2;1.1;;;;;;;9.93;96.02441;921.8511;;;;
2022/09/27 05:14:43;;;;;;;2.6;1.4;;;;;;;10.01;95.5293;921.9662;;;;
2022/09/27 05:17:09;;;;;;;2.8;1.7;;;;;;;10.02;95.44238;922.0154;;;;
2022/09/27 05:19:41;;;;;;;1.3;1.2;;;;;;;9.9;95.49219;922.0544;;;;
2022/09/27 05:22:06;;;;;;;1.4;1.3;;;;;;;9.95;95.82324;922.1434;;;;
2022/09/27 05:24:35;;;;;;;1.4;1.3;;;;;;;9.81;96.29297;922.1348;;;;
2022/09/27 05:27:07;;;;;;;1.3;1.2;;;;;;;9.87;95.87305;922.1183;;;;
2022/09/27 05:29:29;;;;;;;1.8;1.4;;;;;;;9.89;95.70801;922.2166;;;;
2022/09/27 05:31:56;;;;;;;1.9;1.3;;;;;;;9.84;96.4375;922.3588;;;;
2022/09/27 05:37:11;;;;;;;1.3;1.2;;;;;;;9.86;95.89648;922.3616;;;;
2022/09/27 05:39:40;;;;;;;1.7;1.1;;;;;;;9.77;95.79395;922.3524;;;;
2022/09/27 05:42:07;;;;;;;1;1;;;;;;;9.84;96.26855;922.2148;;;;
2022/09/27 05:44:30;;;;;;;1.8;1.2;;;;;;;9.88;96.26465;922.1936;;;;
2022/09/27 05:46:55;;;;;;;3.1;2;;;;;;;9.71;96.87793;922.3363;;;;
2022/09/27 05:49:20;;;;;;;1.5;1.4;;;;;;;9.87;96.92383;922.4601;;;;
2022/09/27 05:51:48;;;;;;;2.2;1.9;;;;;;;9.99;96.52637;922.4498;;;;
2022/09/27 05:54:13;;;;;;;2.3;2.1;;;;;;;10.08;96.18164;922.3008;;;;
2022/09/27 05:56:38;;;;;;;3.4;2.1;;;;;;;9.97;95.91992;922.2726;;;;
2022/09/27 05:59:06;;;;;;;2.6;2.2;;;;;;;10.14;95.49023;922.2419;;;;
2022/09/27 06:01:31;;;;;;;4;2.3;;;;;;;10.2;95.05762;922.2569;;;;
2022/09/27 06:03:59;;;;;;;2.9;2.2;;;;;;;10.37;94.77539;922.2659;;;;
2022/09/27 06:06:24;;;;;;;3.5;2.6;;;;;;;10.44;95.08691;922.3519;;;;
2022/09/27 06:08:53;;;;;;;1.7;1.5;;;;;;;10.58;94.69824;922.3256;;;;
2022/09/27 06:11:18;;;;;;;2.5;1.3;;;;;;;10.68;94.27441;922.4389;;;;
2022/09/27 06:13:44;;;;;;;1.1;1;;;;;;;10.78;93.66504;922.4986;;;;
2022/09/27 06:16:09;;;;;;;1.1;1.1;;;;;;;10.76;92.79297;922.4718;;;;
2022/09/27 06:18:37;;;;;;;2.1;1.8;;;;;;;10.74;93.09766;922.6178;;;;
2022/09/27 06:21:02;;;;;;;3.4;1.9;;;;;;;10.74;92.7666;922.5948;;;;
2022/09/27 06:23:31;;;;;;;2.9;1.7;;;;;;;10.78;92.83301;922.4387;;;;
2022/09/27 06:25:55;;;;;;;2;1.6;;;;;;;10.88;92.52344;922.5002;;;;
2022/09/27 06:28:21;;;;;;;3.2;2.5;;;;;;;10.86;92.85059;922.4043;;;;
2022/09/27 06:30:46;;;;;;;2.1;1.5;;;;;;;10.77;92.28125;922.4924;;;;
2022/09/27 06:33:13;;;;;;;2.3;1.8;;;;;;;10.85;92.87012;922.5574;;;;
2022/09/27 06:35:38;;;;;;;1.4;1.3;;;;;;;10.81;92.49609;922.597;;;;
2022/09/27 06:38:07;;;;;;;2.2;1.6;;;;;;;10.91;92.37891;922.6886;;;;
2022/09/27 06:40:32;;;;;;;2;1.4;;;;;;;10.88;92.55566;922.5887;;;;
2022/09/27 06:42:57;;;;;;;1.7;1.6;;;;;;;10.81;92.47363;922.7217;;;;
2022/09/27 06:49:01;;;;;;;1.5;1.3;;;;;;;10.77;93.3877;922.7042;;;;
2022/09/27 06:51:31;;;;;;;2.4;1.6;;;;;;;10.77;93.3877;922.6866;;;;
2022/09/27 06:53:59;;;;;;;3.2;1.7;;;;;;;10.81;93.10156;922.7737;;;;
2022/09/27 07:04:57;;;;;;;6.2;2.5;;;;;;;11.22;91.72559;922.9186;;;;
2022/09/27 07:07:23;;;;;;;4.8;1.9;;;;;;;11.26;91.88379;922.8787;;;;
2022/09/27 07:09:48;;;;;;;3.2;1.7;;;;;;;11.31;91.23047;922.8859;;;;
2022/09/27 07:12:13;;;;;;;3.7;1.9;;;;;;;11.36;90.63281;922.8706;;;;
2022/09/27 07:14:41;;;;;;;6.2;5.6;;;;;;;11.36;90.91016;922.9128;;;;
2022/09/27 07:17:07;;;;;;;2.1;1.8;;;;;;;11.24;90.69043;922.8958;;;;
2022/09/27 07:19:37;;;;;;;4.1;2.7;;;;;;;11.38;91.74902;922.9897;;;;
2022/09/27 07:22:02;;;;;;;2.6;2.1;;;;;;;11.35;91.29492;922.9035;;;;
2022/09/27 07:24:33;;;;;;;2.2;1.6;;;;;;;11.59;91.12891;922.9997;;;;
2022/09/27 07:27:02;;;;;;;2.4;1.4;;;;;;;11.87;90.22559;923.0572;;;;
2022/09/27 07:29:27;;;;;;;2.8;1.6;;;;;;;11.96;90.31348;923.0258;;;;
2022/09/27 07:31:55;;;;;;;1.9;1.3;;;;;;;12.24;88.8584;923.082;;;;
2022/09/27 07:34:20;;;;;;;1.1;1;;;;;;;12.4;87.11426;923.2117;;;;
2022/09/27 07:36:45;;;;;;;1.2;1.1;;;;;;;12.15;85.34473;923.2488;;;;
2022/09/27 07:39:15;;;;;;;1.9;1.1;;;;;;;12.3;85.96875;923.2762;;;;
2022/09/27 07:41:41;;;;;;;1.1;1;;;;;;;12.45;85.14063;923.3219;;;;
2022/09/27 07:44:07;;;;;;;1.1;0.8;;;;;;;12.5;85.00098;923.3432;;;;
2022/09/27 07:46:30;;;;;;;2.3;1.1;;;;;;;12.71;83.76758;923.3691;;;;
2022/09/27 07:49:00;;;;;;;1.1;1;;;;;;;12.66;82.39355;923.4692;;;;
2022/09/27 07:57:34;;;;;;;1.7;1.2;;;;;;;12.66;84.4707;923.4604;;;;
2022/09/27 07:59:59;;;;;;;1.4;0.7;;;;;;;13.34;83.21191;923.4669;;;;
2022/09/27 08:02:24;;;;;;;0.8;0.5;;;;;;;14.01;78.02148;923.4342;;;;
2022/09/27 08:04:53;;;;;;;0.8;0.7;;;;;;;14.16;74.49023;923.4192;;;;
2022/09/27 08:07:18;;;;;;;0.4;0.4;;;;;;;14;72.92188;923.4835;;;;
2022/09/27 08:09:43;;;;;;;0.7;0.4;;;;;;;14.31;73.19141;923.5145;;;;
2022/09/27 08:12:11;;;;;;;0.4;0.4;;;;;;;14.71;70.88379;923.5901;;;;
2022/09/27 08:14:36;;;;;;;0.3;0.3;;;;;;;14.9;70.77734;923.5684;;;;
2022/09/27 08:17:01;;;;;;;0.6;0.2;;;;;;;14.12;69.55664;923.5972;;;;
2022/09/27 08:19:29;;;;;;;0.3;0.3;;;;;;;14.53;70.01465;923.6312;;;;
2022/09/27 08:21:55;;;;;;;0.1;0.1;;;;;;;14.48;63.69238;923.5317;;;;
2022/09/27 08:24:21;;;;;;;0.2;0.2;;;;;;;14.71;65.44434;923.5379;;;;
2022/09/27 08:26:46;;;;;;;0.1;0.1;;;;;;;14.44;65.16016;923.617;;;;
2022/09/27 08:29:13;;;;;;;0.9;0.2;;;;;;;14.34;71.43457;923.6586;;;;
2022/09/27 08:31:38;;;;;;;0.1;0.1;;;;;;;14.71;62.82715;923.5811;;;;
2022/09/27 08:34:05;;;;;;;0.3;0.2;;;;;;;15.37;62.36816;923.5783;;;;
2022/09/27 08:36:31;;;;;;;0.1;0.1;;;;;;;15.26;59.60547;923.6508;;;;
2022/09/27 08:39:00;;;;;;;0.2;0.2;;;;;;;15.5;55.0752;923.5599;;;;
2022/09/27 08:41:25;;;;;;;0.8;0.2;;;;;;;15.49;59.63574;923.6124;;;;
2022/09/27 08:43:50;;;;;;;0.2;0.2;;;;;;;15.28;57.15918;923.5901;;;;
2022/09/27 08:46:15;;;;;;;0.2;0.2;;;;;;;15.44;56.93945;923.6661;;;;
2022/09/27 08:48:42;;;;;;;0.2;0.2;;;;;;;16.32;52.70215;923.5981;;;;
2022/09/27 08:51:07;;;;;;;0.1;0.1;;;;;;;16.91;50.90723;923.6208;;;;
2022/09/27 08:53:35;;;;;;;0.2;0.2;;;;;;;16.83;51.33887;923.5231;;;;
2022/09/27 08:56:03;;;;;;;0.5;0.2;;;;;;;17.16;50.63574;923.5997;;;;
2022/09/27 08:58:31;;;;;;;0.2;0.2;;;;;;;17.13;52.20996;923.634;;;;
2022/09/27 09:01:02;;;;;;;0.2;0.2;;;;;;;17.89;50.73145;923.5363;;;;
2022/09/27 09:03:27;;;;;;;3.6;0.6;;;;;;;17.55;50.40234;923.5326;;;;
2022/09/27 09:05:54;;;;;;;2.7;0.6;;;;;;;17.28;49.65234;923.4241;;;;
2022/09/27 09:08:19;;;;;;;0.4;0.2;;;;;;;17.2;49.45898;923.4037;;;;
2022/09/27 09:13:13;;;;;;;0.2;0.2;;;;;;;15.67;50.56836;923.3397;;;;
2022/09/27 09:15:53;;;;;;;0.1;0.1;;;;;;;15.65;50.60059;923.3566;;;;
2022/09/27 09:18:03;;;;;;;0.7;0.1;;;;;;;16.05;53.6875;923.3303;;;;
2022/09/27 09:20:28;;;;;;;0.1;0.1;;;;;;;16.64;52.55566;923.3931;;;;
2022/09/27 09:22:57;;;;;;;0.8;0.2;;;;;;;16.51;54.9375;923.3806;;;;
2022/09/27 09:25:22;;;;;;;1;0.3;;;;;;;16.19;58.34375;923.3501;;;;
2022/09/27 09:27:50;;;;;;;0.2;0.2;;;;;;;15.99;56.83691;923.4428;;;;
2022/09/27 09:30:15;;;;;;;0.1;0.1;;;;;;;15.56;56.43457;923.4696;;;;
2022/09/27 09:32:44;;;;;;;0.2;0.2;;;;;;;15.7;56.37109;923.4055;;;;
2022/09/27 09:35:05;;;;;;;0.4;0.4;;;;;;;15.87;56.78613;923.5717;;;;
2022/09/27 09:37:30;;;;;;;0.6;0.2;;;;;;;16.73;55.09082;923.5869;;;;
2022/09/27 09:39:56;;;;;;;0.2;0.2;;;;;;;16.87;57.31055;923.7386;;;;
2022/09/27 09:42:21;;;;;;;0.3;0.3;;;;;;;17.02;57.0625;924.0796;;;;
2022/09/27 09:44:46;;;;;;;0.1;0.1;;;;;;;16.41;53.16504;923.896;;;;
2022/09/27 09:47:11;;;;;;;0.1;0.1;;;;;;;15.4;52.96191;924.0506;;;;
2022/09/27 09:49:36;;;;;;;0.4;0.3;;;;;;;15.14;57.12988;924.1941;;;;
2022/09/27 09:52:04;;;;;;;0;0;;;;;;;14.43;52.90234;924.0352;;;;
2022/09/27 09:54:32;;;;;;;0.2;0.2;;;;;;;13.57;57.9707;923.994;;;;
2022/09/27 09:56:56;;;;;;;0.1;0.1;;;;;;;12.89;61.26855;923.965;;;;
2022/09/27 09:59:22;;;;;;;0.4;0.2;;;;;;;12.73;61.65723;923.9366;;;;
2022/09/27 10:01:50;;;;;;;0.4;0.2;;;;;;;12.53;63.24707;923.9741;;;;
2022/09/27 10:04:21;;;;;;;0.3;0.3;;;;;;;13.01;61.77734;923.9656;;;;
2022/09/27 10:06:48;;;;;;;0.2;0.2;;;;;;;13.03;61.03516;923.9822;;;;
2022/09/27 10:09:16;;;;;;;0.2;0.2;;;;;;;12.52;63.41797;924.0981;;;;
2022/09/27 10:11:44;;;;;;;0.3;0.3;;;;;;;12.34;64.10254;924.1061;;;;
2022/09/27 10:14:14;;;;;;;0.5;0.3;;;;;;;12.39;63.00879;924.0845;;;;
2022/09/27 10:16:41;;;;;;;0.2;0.2;;;;;;;12.31;62.55078;924.0158;;;;
2022/09/27 10:19:04;;;;;;;0.2;0.2;;;;;;;12.36;62.31641;924.1042;;;;
2022/09/27 10:21:30;;;;;;;0.1;0.1;;;;;;;12.6;62.42969;924.0413;;;;
2022/09/27 10:23:59;;;;;;;0.1;0.1;;;;;;;12.85;58.71387;924.0634;;;;
2022/09/27 10:26:28;;;;;;;0.2;0.1;;;;;;;12.87;57.79688;924.1774;;;;
2022/09/27 10:28:53;;;;;;;0.8;0.2;;;;;;;12.95;57.88965;924.2147;;;;
2022/09/27 10:31:20;;;;;;;0.2;0.2;;;;;;;12.93;56.56543;924.2726;;;;
2022/09/27 10:33:45;;;;;;;0.1;0.1;;;;;;;12.83;57.62012;924.2261;;;;
2022/09/27 10:36:15;;;;;;;0.4;0.2;;;;;;;12.94;56.8418;924.3459;;;;
2022/09/27 10:38:40;;;;;;;0.1;0.1;;;;;;;12.78;55.89258;924.2411;;;;
2022/09/27 10:41:05;;;;;;;0.1;0.1;;;;;;;12.79;55.00977;924.3362;;;;
2022/09/27 10:43:30;;;;;;;0.3;0.3;;;;;;;12.92;55.31445;924.3503;;;;
2022/09/27 10:45:59;;;;;;;0.3;0.2;;;;;;;13.03;56.42871;924.3834;;;;
2022/09/27 10:48:24;;;;;;;0.2;0.2;;;;;;;12.87;55.35156;924.3978;;;;
2022/09/27 10:50:51;;;;;;;0.4;0.2;;;;;;;13.05;55.64063;924.4771;;;;
2022/09/27 10:53:22;;;;;;;0.1;0.1;;;;;;;13.11;54.32617;924.5245;;;;
2022/09/27 10:55:47;;;;;;;0.2;0.2;;;;;;;13.79;55.33203;924.5096;;;;
2022/09/27 10:58:14;;;;;;;0.9;0.2;;;;;;;15;49.39453;924.4288;;;;
2022/09/27 11:00:40;;;;;;;0.4;0.1;;;;;;;15.27;47.70605;924.5526;;;;
2022/09/27 11:03:04;;;;;;;0.3;0.3;;;;;;;14.82;48.84375;924.5808;;;;
2022/09/27 11:05:33;;;;;;;0.3;0.2;;;;;;;14.98;47.56934;924.5809;;;;
2022/09/27 11:07:58;;;;;;;0.4;0.3;;;;;;;14.37;47.52539;924.6611;;;;
2022/09/27 11:10:26;;;;;;;0.2;0.2;;;;;;;13.9;48.39648;924.6663;;;;
2022/09/27 11:12:52;;;;;;;0.6;0.2;;;;;;;14.82;46.00781;924.587;;;;
2022/09/27 11:15:23;;;;;;;0.6;0.3;;;;;;;15.39;45.14355;924.4855;;;;
2022/09/27 11:17:42;;;;;;;0.4;0.2;;;;;;;15.23;44.31934;924.549;;;;
2022/09/27 11:20:12;;;;;;;0.5;0.2;;;;;;;14.77;46.625;924.4897;;;;
2022/09/27 11:22:37;;;;;;;0.6;0.2;;;;;;;15.09;43.75195;924.4648;;;;
2022/09/27 11:25:02;;;;;;;0.2;0.2;;;;;;;15.23;44.01953;924.4152;;;;
2022/09/27 11:27:27;;;;;;;0.3;0.3;;;;;;;15.02;45.00098;924.3492;;;;
2022/09/27 11:29:52;;;;;;;1.5;0.3;;;;;;;15.81;44.60938;924.4016;;;;
2022/09/27 11:32:20;;;;;;;0.8;0.6;;;;;;;15.49;43.81445;924.3672;;;;
2022/09/27 11:34:53;;;;;;;0.4;0.2;;;;;;;15.42;43.61133;924.3968;;;;
2022/09/27 11:37:19;;;;;;;0.3;0.3;;;;;;;15.48;42.85547;924.3049;;;;
2022/09/27 11:39:45;;;;;;;0.5;0.2;;;;;;;15.1;41.80273;924.2792;;;;
2022/09/27 11:42:15;;;;;;;0.2;0.2;;;;;;;15.61;41.62012;924.1679;;;;
2022/09/27 11:44:41;;;;;;;0.2;0.2;;;;;;;15.64;39.53223;924.1769;;;;
2022/09/27 11:47:06;;;;;;;0.5;0.5;;;;;;;16.11;40.17578;924.177;;;;
2022/09/27 11:49:31;;;;;;;0.2;0.2;;;;;;;16.08;38.98242;924.1707;;;;
2022/09/27 11:52:03;;;;;;;0.6;0.3;;;;;;;15.86;40.12988;924.0045;;;;
2022/09/27 11:54:28;;;;;;;0.6;0.4;;;;;;;15.57;41.7207;924.0903;;;;
2022/09/27 11:56:53;;;;;;;0.3;0.3;;;;;;;15.27;40.90723;923.9305;;;;
2022/09/27 11:59:19;;;;;;;0.2;0.2;;;;;;;15.92;41.32617;923.8836;;;;
2022/09/27 12:01:46;;;;;;;0.5;0.3;;;;;;;16.63;40.1543;923.8876;;;;
2022/09/27 12:04:11;;;;;;;0.1;0.1;;;;;;;16.65;39.11328;923.8389;;;;
2022/09/27 12:06:37;;;;;;;0.4;0.3;;;;;;;16.48;39.98926;923.7661;;;;
2022/09/27 12:09:03;;;;;;;0.4;0.4;;;;;;;16.57;38.06445;923.7314;;;;
2022/09/27 12:11:29;;;;;;;0.4;0.2;;;;;;;16.5;38.7998;923.8094;;;;
2022/09/27 12:13:52;;;;;;;0.3;0.3;;;;;;;16.7;38.58594;923.7687;;;;
2022/09/27 12:16:17;;;;;;;0.6;0.2;;;;;;;16.93;39.78711;923.8578;;;;
2022/09/27 12:18:42;;;;;;;0.3;0.3;;;;;;;16.61;39.14453;923.7364;;;;
2022/09/27 12:21:08;;;;;;;0.3;0.3;;;;;;;16.59;38.64551;923.6728;;;;
2022/09/27 12:23:35;;;;;;;0.2;0.2;;;;;;;16.24;39.36621;923.8594;;;;
2022/09/27 12:26:00;;;;;;;0.5;0.4;;;;;;;16.8;39.16211;923.733;;;;
2022/09/27 12:28:25;;;;;;;0.3;0.3;;;;;;;17.05;37.73535;923.6606;;;;
2022/09/27 12:30:50;;;;;;;1.1;0.4;;;;;;;19.96;34.87109;923.6417;;;;
2022/09/27 12:33:15;;;;;;;1.3;0.3;;;;;;;19.71;34.94531;923.7416;;;;
2022/09/27 12:35:41;;;;;;;0.4;0.2;;;;;;;17.94;36.31445;923.7739;;;;
2022/09/27 12:38:06;;;;;;;0.9;0.3;;;;;;;17.03;40.14453;923.76;;;;
2022/09/27 12:40:31;;;;;;;0.3;0.3;;;;;;;16.92;40.7832;923.724;;;;
2022/09/27 12:42:57;;;;;;;0.5;0.3;;;;;;;17.52;39.36523;923.644;;;;
2022/09/27 12:45:21;;;;;;;0.3;0.2;;;;;;;19.15;36.07617;923.4495;;;;
2022/09/27 12:47:47;;;;;;;0.8;0.4;;;;;;;20.67;32.97461;923.4484;;;;
2022/09/27 12:50:14;;;;;;;0.3;0.3;;;;;;;20.33;34.72461;923.373;;;;
2022/09/27 12:52:39;;;;;;;0.8;0.3;;;;;;;21.85;32.20801;923.4001;;;;
2022/09/27 12:55:04;;;;;;;0.2;0.2;;;;;;;21.98;29.87402;923.3521;;;;
2022/09/27 12:57:30;;;;;;;0.6;0.3;;;;;;;21.17;32.22852;923.3183;;;;
2022/09/27 12:59:54;;;;;;;0.4;0.4;;;;;;;20.21;33.2334;923.399;;;;
2022/09/27 13:02:19;;;;;;;0.5;0.3;;;;;;;18.86;35.40039;923.2784;;;;
2022/09/27 13:04:45;;;;;;;1;0.7;;;;;;;18.62;36.80078;923.3756;;;;
2022/09/27 13:07:16;;;;;;;7.2;3.7;;;;;;;17.68;35.68945;923.3265;;;;
2022/09/27 13:09:39;;;;;;;2.4;1.6;;;;;;;17.56;36.50391;923.2994;;;;
2022/09/27 13:12:05;;;;;;;0.4;0.4;;;;;;;16.95;38.73535;923.3111;;;;
2022/09/27 13:14:55;;;;;;;2.9;1.2;;;;;;;17.17;40.45898;923.2986;;;;
2022/09/27 13:17:24;;;;;;;0.4;0.3;;;;;;;16.88;37.24609;923.3314;;;;
2022/09/27 13:19:49;;;;;;;0.5;0.5;;;;;;;16.22;38.70508;923.265;;;;
2022/09/27 13:22:19;;;;;;;1.1;0.9;;;;;;;16.5;39.58691;923.3039;;;;
2022/09/27 13:24:47;;;;;;;0.7;0.4;;;;;;;16.59;40.2666;923.2892;;;;
2022/09/27 13:27:13;;;;;;;1.4;0.5;;;;;;;16.67;43.11133;923.3705;;;;
2022/09/27 13:29:37;;;;;;;1.5;0.5;;;;;;;16.28;42.59766;923.3466;;;;
2022/09/27 13:32:05;;;;;;;0.8;0.3;;;;;;;15.76;41.83008;923.2686;;;;
2022/09/27 13:34:30;;;;;;;0.5;0.3;;;;;;;15.81;42.06641;923.3622;;;;
2022/09/27 13:36:57;;;;;;;0.7;0.3;;;;;;;16.41;47.24023;923.3408;;;;
2022/09/27 13:39:24;;;;;;;0.8;0.5;;;;;;;17.17;45.07324;923.4497;;;;
2022/09/27 13:41:50;;;;;;;0.7;0.4;;;;;;;16.31;46.14063;923.3864;;;;
2022/09/27 13:44:21;;;;;;;0.6;0.4;;;;;;;15.21;50.97656;923.4156;;;;
2022/09/27 13:46:45;;;;;;;0.7;0.3;;;;;;;14.53;51.39355;923.4846;;;;
2022/09/27 13:49:10;;;;;;;0.6;0.3;;;;;;;13.74;52.09375;923.5045;;;;
2022/09/27 13:51:35;;;;;;;2.3;0.6;;;;;;;13.4;53.29492;923.615;;;;
2022/09/27 13:54:37;;;;;;;1.2;0.4;;;;;;;13.37;55.43945;923.7221;;;;
2022/09/27 13:57:01;;;;;;;2.2;0.5;;;;;;;13.45;55.84082;923.7564;;;;
2022/09/27 13:59:48;;;;;;;0.5;0.5;;;;;;;13.51;55.28418;923.7974;;;;
2022/09/27 14:02:13;;;;;;;0.6;0.6;;;;;;;13.67;53.59082;923.8895;;;;
2022/09/27 14:04:41;;;;;;;1.6;0.5;;;;;;;13.36;54.00195;924.0926;;;;
2022/09/27 14:07:07;;;;;;;0.9;0.4;;;;;;;13.2;56.96973;924.2854;;;;
2022/09/27 14:09:32;;;;;;;0.4;0.4;;;;;;;13.03;57.7959;924.5328;;;;
2022/09/27 14:11:58;;;;;;;0.3;0.2;;;;;;;12.73;54.91016;924.5787;;;;
2022/09/27 14:14:23;;;;;;;0.7;0.3;;;;;;;12.69;58.52051;924.8247;;;;
2022/09/27 14:16:50;;;;;;;0.2;0.2;;;;;;;12.39;60.63574;924.6543;;;;
2022/09/27 14:19:16;;;;;;;0.2;0.2;;;;;;;11.99;61.38086;924.6359;;;;
2022/09/27 14:21:41;;;;;;;0.6;0.5;;;;;;;11.82;63.47656;924.575;;;;
2022/09/27 14:24:08;;;;;;;0.6;0.5;;;;;;;12.71;63.27344;924.5192;;;;
2022/09/27 14:26:33;;;;;;;0.7;0.5;;;;;;;14.22;59.1748;924.4835;;;;
2022/09/27 14:28:59;;;;;;;1.8;1;;;;;;;13.76;60.22754;924.5952;;;;
2022/09/27 14:31:24;;;;;;;1.5;0.9;;;;;;;14.74;58.49609;924.4664;;;;
2022/09/27 14:33:51;;;;;;;0.9;0.7;;;;;;;14.62;57.04004;924.5003;;;;
2022/09/27 14:38:41;;;;;;;0.4;0.4;;;;;;;14.26;55.21777;924.5679;;;;
2022/09/27 14:41:07;;;;;;;0.5;0.5;;;;;;;13.95;56.99707;924.5809;;;;
2022/09/27 14:43:32;;;;;;;0.8;0.4;;;;;;;13.94;55.75293;924.4476;;;;
2022/09/27 14:45:58;;;;;;;0.4;0.3;;;;;;;13.18;56.69043;924.4977;;;;
2022/09/27 14:48:25;;;;;;;0.9;0.3;;;;;;;12.94;57.24512;924.4911;;;;
2022/09/27 14:50:53;;;;;;;0.5;0.4;;;;;;;12.79;58.24609;924.392;;;;
2022/09/27 14:53:18;;;;;;;0.7;0.4;;;;;;;12.87;59.98926;924.377;;;;
2022/09/27 14:55:46;;;;;;;0.9;0.7;;;;;;;12.49;61.66992;924.2814;;;;
2022/09/27 14:58:11;;;;;;;0.4;0.4;;;;;;;12.5;61.73926;924.3084;;;;
2022/09/27 15:00:40;;;;;;;0.4;0.4;;;;;;;12.48;61.70313;924.2241;;;;
2022/09/27 15:03:04;;;;;;;0.7;0.5;;;;;;;12.35;62.54395;924.1683;;;;
2022/09/27 15:05:34;;;;;;;0.7;0.5;;;;;;;12.37;63.17773;924.239;;;;
2022/09/27 15:08:00;;;;;;;0.4;0.4;;;;;;;12.47;60.20996;924.3122;;;;
2022/09/27 15:10:30;;;;;;;0.4;0.4;;;;;;;12.85;59.59766;924.3639;;;;
2022/09/27 15:12:53;;;;;;;0.7;0.7;;;;;;;13.05;60.99219;924.3764;;;;
2022/09/27 15:15:23;;;;;;;3;0.8;;;;;;;13.19;60.91797;924.3897;;;;
2022/09/27 15:17:48;;;;;;;0.6;0.6;;;;;;;13.04;57.08496;924.3105;;;;
2022/09/27 15:20:13;;;;;;;1.1;0.9;;;;;;;12.74;58.06738;924.2494;;;;
2022/09/27 15:22:42;;;;;;;1.3;1;;;;;;;12.38;58.9248;924.3194;;;;
2022/09/27 15:25:06;;;;;;;2;1.4;;;;;;;12.51;59.36719;924.2714;;;;
2022/09/27 15:27:31;;;;;;;1.2;1;;;;;;;12.63;60.30176;924.2548;;;;
2022/09/27 15:29:58;;;;;;;1.5;1.3;;;;;;;12.83;60.71875;924.329;;;;
2022/09/27 15:32:23;;;;;;;2.6;1.7;;;;;;;12.94;62.33105;924.3426;;;;
2022/09/27 15:34:48;;;;;;;1.6;1;;;;;;;13.18;62.28418;924.2772;;;;
2022/09/27 15:37:18;;;;;;;1.5;1.4;;;;;;;13.07;63.65918;924.3217;;;;
2022/09/27 15:39:44;;;;;;;1.6;1.5;;;;;;;13.1;64.27246;924.3641;;;;
2022/09/27 15:42:11;;;;;;;0.9;0.7;;;;;;;13.07;61.74121;924.2891;;;;
2022/09/27 15:44:34;;;;;;;1.4;1.3;;;;;;;12.34;64.11328;924.1061;;;;
2022/09/27 15:46:59;;;;;;;1.4;1.3;;;;;;;12.2;66.26953;924.092;;;;
2022/09/27 15:49:29;;;;;;;1.3;1;;;;;;;12.26;64.54883;924.1158;;;;
2022/09/27 15:51:52;;;;;;;1.2;1;;;;;;;12.36;64.5752;924.0364;;;;
2022/09/27 15:54:18;;;;;;;2;1.4;;;;;;;12.14;61.41406;923.94;;;;
2022/09/27 15:56:43;;;;;;;1.8;1.1;;;;;;;12.27;63.81738;924.0859;;;;
2022/09/27 15:59:11;;;;;;;1.7;1.4;;;;;;;12.34;64.35449;924.0072;;;;
2022/09/27 16:01:37;;;;;;;1.7;1.1;;;;;;;12.51;64.0918;924.0281;;;;
2022/09/27 16:04:01;;;;;;;0.9;0.9;;;;;;;12.48;59.99316;924.0486;;;;
2022/09/27 16:06:30;;;;;;;1.2;1.1;;;;;;;12.51;59.37891;923.9529;;;;